Villa del Salvador, Argentina
Current Conditions -  °F | °C
As of 6:00 PM on Monday 24 Nov 2014 (Local Time) from SAME Reporting Station
Few Clouds Few Clouds  
Wind Chill: 73°   Ceiling: Unl
Heat Index: 73°   Visibility: 6mi
Dew Point: 39°   Wind: 6mph
Humidity: 29%   Direction: 90°E
Pressure: 29.88"   Gusts: NA
Location:  31.45°S, 68.41°W
Report Text: SAME 242100Z 09005KT 9999 FEW045 23/04 Q1012
Loading
Personal Weather Stations






























Interactive Weather Map New forecast layout! Learn more

10-Day Weather Forecast

Advertisements
Track Severe Weather on mobile